Time;durP1;ratioP1;P1;durP2;ratioP2;P2;SDS_P1;SDS_P2;PMS_P1;PMS_P2;Temp;Humidity;BMP_temperature;BMP_pressure;BME280_temperature;BME280_humidity;BME280_pressure;Samples;Min_cycle;Max_cycle;Signal;HPM_P1;HPM_P2
2021/03/23 00:01:57;;;;;;;5.50;2.70;;;5.70;97.30;;;;;;4969496;28;20930;-94
2021/03/23 00:04:32;;;;;;;5.33;2.83;;;5.70;97.30;;;;;;4968489;28;20600;-94
2021/03/23 00:30:05;;;;;;;5.93;3.87;;;5.30;97.30;;;;;;5162179;23;20477;-94
2021/03/23 00:32:30;;;;;;;5.33;3.10;;;5.30;97.30;;;;;;5045841;28;20482;-93
2021/03/23 00:34:58;;;;;;;8.10;3.37;;;5.30;97.30;;;;;;5046616;28;20415;-92
2021/03/23 00:37:24;;;;;;;5.00;3.10;;;5.40;97.30;;;;;;5047478;28;20196;-94
2021/03/23 00:39:53;;;;;;;4.70;2.93;;;5.40;97.30;;;;;;5045193;28;20428;-91
2021/03/23 00:42:19;;;;;;;5.40;2.87;;;5.40;97.30;;;;;;5058061;23;20600;-83
2021/03/23 00:44:46;;;;;;;5.53;3.10;;;5.40;97.30;;;;;;5025045;28;20466;-82
2021/03/23 00:47:11;;;;;;;5.63;3.13;;;5.50;97.30;;;;;;5033492;28;20420;-81
2021/03/23 00:49:37;;;;;;;7.93;4.30;;;5.50;97.30;;;;;;5032876;28;20538;-82
2021/03/23 00:52:03;;;;;;;11.10;3.67;;;5.60;97.30;;;;;;5025520;28;20531;-84
2021/03/23 00:54:28;;;;;;;7.07;3.60;;;5.60;97.30;;;;;;5015084;28;20181;-83
2021/03/23 00:56:54;;;;;;;6.90;3.70;;;5.60;97.30;;;;;;5014760;28;20179;-83
2021/03/23 00:59:20;;;;;;;7.00;3.47;;;5.60;97.30;;;;;;5013771;28;20195;-82
2021/03/23 01:01:45;;;;;;;4.30;2.70;;;5.60;97.30;;;;;;5013528;28;20275;-82
2021/03/23 01:04:11;;;;;;;15.17;4.50;;;5.70;97.30;;;;;;5013214;28;20209;-82
2021/03/23 01:06:36;;;;;;;6.77;3.60;;;5.70;97.30;;;;;;5014800;28;20185;-81
2021/03/23 01:09:03;;;;;;;7.00;3.63;;;5.70;97.30;;;;;;5015058;28;20320;-82
2021/03/23 01:11:29;;;;;;;6.53;3.70;;;5.70;97.30;;;;;;5014932;28;20201;-81
2021/03/23 01:13:55;;;;;;;7.43;3.87;;;5.70;97.30;;;;;;5015740;28;20419;-81
2021/03/23 01:16:20;;;;;;;7.53;3.73;;;5.70;97.30;;;;;;5013863;28;20415;-82
2021/03/23 01:18:46;;;;;;;10.53;4.30;;;5.70;97.30;;;;;;5012501;28;20281;-82
2021/03/23 01:21:12;;;;;;;11.63;4.37;;;5.70;97.30;;;;;;5012548;28;20204;-83
2021/03/23 01:23:37;;;;;;;9.67;3.83;;;5.70;97.30;;;;;;5011512;28;20197;-81
2021/03/23 01:26:03;;;;;;;8.67;3.80;;;5.70;97.30;;;;;;5011516;28;20208;-84
2021/03/23 01:28:29;;;;;;;10.93;3.33;;;5.70;97.30;;;;;;5011455;28;20235;-82
2021/03/23 01:30:55;;;;;;;9.63;3.50;;;5.70;97.30;;;;;;5012187;28;20177;-82
2021/03/23 01:33:20;;;;;;;11.70;3.70;;;5.70;97.30;;;;;;5011698;28;20225;-82
2021/03/23 01:35:46;;;;;;;9.83;3.87;;;5.60;97.30;;;;;;5012920;28;20459;-82
2021/03/23 01:38:12;;;;;;;7.40;3.30;;;5.60;97.30;;;;;;5011376;28;20725;-81
2021/03/23 01:40:39;;;;;;;4.87;3.33;;;5.60;97.30;;;;;;5011703;28;20268;-82
2021/03/23 01:43:06;;;;;;;7.53;3.57;;;5.60;97.30;;;;;;5011203;28;20752;-82
2021/03/23 01:45:39;;;;;;;7.43;3.13;;;5.60;97.30;;;;;;5011521;28;20427;-81
2021/03/23 01:48:17;;;;;;;6.77;2.97;;;5.60;97.30;;;;;;5012137;28;20420;-81
2021/03/23 01:51:04;;;;;;;5.23;2.70;;;5.60;97.30;;;;;;5012828;28;20417;-82
2021/03/23 01:53:37;;;;;;;5.40;3.10;;;5.50;97.30;;;;;;5012306;28;20424;-81
2021/03/23 01:56:07;;;;;;;8.10;2.80;;;5.50;97.30;;;;;;5012823;28;20424;-82
2021/03/23 01:58:38;;;;;;;4.67;3.27;;;5.50;97.30;;;;;;5012257;28;20842;-83
2021/03/23 02:01:13;;;;;;;6.93;3.03;;;5.50;97.30;;;;;;5014906;28;20514;-81
2021/03/23 02:03:39;;;;;;;6.80;2.60;;;5.40;97.30;;;;;;5016022;28;20462;-82
2021/03/23 02:06:05;;;;;;;10.80;3.70;;;5.50;97.30;;;;;;5017316;28;20419;-82
2021/03/23 02:08:33;;;;;;;8.13;3.10;;;5.40;97.30;;;;;;5016137;28;20412;-82
2021/03/23 02:11:01;;;;;;;12.43;3.80;;;5.40;97.30;;;;;;5017160;28;20784;-82
2021/03/23 02:13:27;;;;;;;4.30;2.40;;;5.50;97.30;;;;;;5017461;28;20432;-82
2021/03/23 02:15:53;;;;;;;7.20;3.30;;;5.50;97.30;;;;;;5017197;28;20784;-82
2021/03/23 02:18:25;;;;;;;5.50;3.43;;;5.40;97.30;;;;;;5016874;28;20185;-82
2021/03/23 02:21:12;;;;;;;6.70;2.93;;;5.40;97.30;;;;;;5016918;28;20223;-82
2021/03/23 02:23:50;;;;;;;10.40;3.23;;;5.40;97.30;;;;;;5017750;28;21099;-81
2021/03/23 02:26:36;;;;;;;7.17;3.73;;;5.40;97.30;;;;;;5016394;28;20424;-82
2021/03/23 02:29:09;;;;;;;5.20;2.87;;;5.40;97.30;;;;;;5017975;28;20400;-83
2021/03/23 02:31:41;;;;;;;3.07;2.20;;;5.30;97.30;;;;;;5016681;28;20436;-82
2021/03/23 02:34:10;;;;;;;3.47;2.40;;;5.30;97.30;;;;;;5016424;28;20761;-82
2021/03/23 02:36:37;;;;;;;4.57;2.97;;;5.30;97.30;;;;;;5016496;28;20428;-82
2021/03/23 02:39:08;;;;;;;5.60;2.63;;;5.30;97.30;;;;;;5016488;28;20431;-82
2021/03/23 02:41:34;;;;;;;12.10;3.00;;;5.20;97.30;;;;;;5000371;28;20479;-82
2021/03/23 02:44:00;;;;;;;6.47;3.07;;;5.20;97.30;;;;;;5017878;28;20455;-81
2021/03/23 02:46:26;;;;;;;7.87;3.20;;;5.20;97.30;;;;;;5017618;28;20416;-82
2021/03/23 02:48:51;;;;;;;5.87;3.20;;;5.20;97.30;;;;;;5017328;28;20200;-83
2021/03/23 02:51:18;;;;;;;7.33;3.30;;;5.20;97.30;;;;;;5016485;28;20268;-82
2021/03/23 02:53:45;;;;;;;7.13;2.60;;;5.20;97.30;;;;;;5016545;28;20187;-81
2021/03/23 02:56:11;;;;;;;8.60;3.67;;;5.20;97.30;;;;;;5016016;28;20420;-82
2021/03/23 02:58:37;;;;;;;4.87;3.50;;;5.20;97.30;;;;;;5016452;28;21007;-81
2021/03/23 03:01:05;;;;;;;7.40;3.07;;;5.20;97.30;;;;;;5016467;28;20231;-82
2021/03/23 03:03:31;;;;;;;8.10;3.37;;;5.20;97.30;;;;;;5016036;28;20509;-81
2021/03/23 03:05:57;;;;;;;12.67;3.60;;;5.20;97.30;;;;;;5016628;28;20470;-82
2021/03/23 03:08:23;;;;;;;6.83;2.83;;;5.10;97.30;;;;;;5017809;28;20408;-82
2021/03/23 03:10:50;;;;;;;9.53;3.07;;;5.20;97.30;;;;;;5018121;28;20815;-83
2021/03/23 03:13:19;;;;;;;5.23;2.97;;;5.20;97.30;;;;;;5015658;28;20295;-81
2021/03/23 03:15:45;;;;;;;7.17;3.07;;;5.20;97.30;;;;;;5016281;28;20484;-82
2021/03/23 03:18:10;;;;;;;6.30;3.13;;;5.10;97.30;;;;;;5018349;28;20455;-82
2021/03/23 03:20:36;;;;;;;5.77;3.40;;;5.20;97.30;;;;;;5018034;28;20368;-82
2021/03/23 03:23:02;;;;;;;7.03;3.30;;;5.20;97.30;;;;;;5017668;28;20251;-82
2021/03/23 03:25:27;;;;;;;5.80;3.40;;;5.20;97.30;;;;;;5016296;28;20212;-82
2021/03/23 03:27:53;;;;;;;12.23;3.80;;;5.20;97.30;;;;;;5016174;28;20208;-82
2021/03/23 03:30:31;;;;;;;8.90;3.60;;;5.10;97.30;;;;;;5016144;28;20600;-82
2021/03/23 03:32:57;;;;;;;7.30;3.43;;;5.20;97.30;;;;;;5016531;28;20204;-82
2021/03/23 03:35:26;;;;;;;7.47;3.30;;;5.10;97.30;;;;;;5017801;28;20409;-82
2021/03/23 03:37:53;;;;;;;4.83;2.43;;;5.10;97.30;;;;;;5016543;28;20436;-82
2021/03/23 03:40:26;;;;;;;11.17;3.87;;;5.10;97.30;;;;;;5016058;28;20474;-82
2021/03/23 03:42:52;;;;;;;4.40;3.00;;;5.10;97.30;;;;;;5017072;28;20221;-82
2021/03/23 03:45:20;;;;;;;5.97;2.90;;;5.10;97.30;;;;;;5017015;28;20466;-82
2021/03/23 03:47:51;;;;;;;4.53;2.70;;;5.00;97.30;;;;;;5015268;28;20478;-82
2021/03/23 03:50:18;;;;;;;4.60;2.90;;;5.00;97.30;;;;;;5014651;28;20443;-82
2021/03/23 03:52:43;;;;;;;4.03;2.40;;;4.90;97.30;;;;;;5014848;28;20451;-82
2021/03/23 03:55:13;;;;;;;4.03;2.70;;;4.90;97.30;;;;;;5014495;28;20424;-81
2021/03/23 03:57:39;;;;;;;2.93;2.30;;;4.90;97.30;;;;;;5014249;28;20180;-82
2021/03/23 04:00:05;;;;;;;6.43;2.50;;;4.80;97.30;;;;;;5013909;28;20424;-81
2021/03/23 04:02:31;;;;;;;8.70;2.87;;;4.80;97.30;;;;;;5014431;28;20201;-81
2021/03/23 04:04:57;;;;;;;4.00;2.50;;;4.80;97.30;;;;;;5013797;28;20467;-81
2021/03/23 04:07:22;;;;;;;4.97;2.80;;;4.80;97.30;;;;;;5013876;28;20174;-82
2021/03/23 04:09:48;;;;;;;6.03;3.30;;;4.80;97.30;;;;;;5015118;28;20173;-82
2021/03/23 04:12:14;;;;;;;4.00;2.30;;;4.80;97.30;;;;;;5013618;28;20203;-82
2021/03/23 04:14:39;;;;;;;3.83;2.77;;;4.80;97.30;;;;;;5015354;28;20181;-82
2021/03/23 04:17:05;;;;;;;5.37;2.80;;;4.90;97.30;;;;;;5015316;28;20418;-81
2021/03/23 04:19:31;;;;;;;3.90;2.37;;;4.90;97.30;;;;;;5013272;28;20708;-82
2021/03/23 04:21:56;;;;;;;9.20;3.13;;;4.90;97.30;;;;;;5013847;28;20232;-82
2021/03/23 04:24:22;;;;;;;7.30;2.90;;;4.80;97.30;;;;;;5012642;28;20197;-82
2021/03/23 04:26:48;;;;;;;3.63;2.70;;;4.90;97.30;;;;;;5014243;28;20173;-82
2021/03/23 04:29:14;;;;;;;10.87;3.10;;;4.90;97.30;;;;;;5013924;28;20426;-82
2021/03/23 04:31:43;;;;;;;11.93;3.03;;;4.90;97.30;;;;;;5013319;28;20207;-82
2021/03/23 04:34:10;;;;;;;3.80;2.63;;;4.90;97.30;;;;;;5013561;28;20181;-83
2021/03/23 04:36:36;;;;;;;6.37;2.33;;;4.90;97.30;;;;;;5015059;28;20924;-82
2021/03/23 04:39:05;;;;;;;3.80;2.43;;;4.90;97.30;;;;;;5015115;28;20427;-82
2021/03/23 04:41:31;;;;;;;5.97;2.60;;;4.90;97.30;;;;;;5012933;28;20436;-82
2021/03/23 04:43:57;;;;;;;6.47;2.77;;;5.00;97.30;;;;;;5012782;28;20543;-82
2021/03/23 04:46:25;;;;;;;6.83;3.73;;;4.90;97.30;;;;;;5012569;28;20990;-82
2021/03/23 04:48:51;;;;;;;8.07;3.17;;;4.90;97.30;;;;;;5012560;28;20205;-82
2021/03/23 04:51:19;;;;;;;4.63;2.90;;;4.90;97.30;;;;;;5012518;28;20479;-82
2021/03/23 04:53:45;;;;;;;8.87;3.53;;;5.00;97.30;;;;;;5012430;28;20419;-82
2021/03/23 04:56:29;;;;;;;5.63;2.83;;;5.00;97.30;;;;;;5012735;28;20900;-83
2021/03/23 04:58:55;;;;;;;7.17;3.23;;;5.00;97.30;;;;;;5012929;28;20173;-82
2021/03/23 05:01:21;;;;;;;6.97;2.93;;;5.00;97.30;;;;;;5011772;28;20567;-83
2021/03/23 05:03:56;;;;;;;5.00;2.30;;;5.00;97.30;;;;;;5012558;28;20991;-83
2021/03/23 05:06:23;;;;;;;3.10;2.50;;;5.00;97.30;;;;;;5013393;28;20443;-82
2021/03/23 05:08:48;;;;;;;5.67;2.37;;;4.90;97.30;;;;;;5013100;28;20439;-81
2021/03/23 05:11:17;;;;;;;4.30;2.30;;;5.00;97.30;;;;;;5014514;28;20408;-82
2021/03/23 05:13:43;;;;;;;3.57;2.93;;;4.90;97.30;;;;;;5013652;28;20235;-84
2021/03/23 05:16:09;;;;;;;3.93;2.63;;;4.90;97.30;;;;;;5013142;28;20423;-81
2021/03/23 05:18:34;;;;;;;3.73;2.47;;;4.90;97.30;;;;;;5011457;28;20204;-83
2021/03/23 05:21:00;;;;;;;4.00;2.33;;;4.90;97.30;;;;;;5011555;28;20183;-81
2021/03/23 05:23:26;;;;;;;6.50;3.07;;;4.90;97.30;;;;;;5005526;28;20205;-83
2021/03/23 05:25:52;;;;;;;6.73;2.97;;;4.90;97.30;;;;;;4998671;28;20420;-81
2021/03/23 05:28:19;;;;;;;5.83;2.90;;;5.00;97.30;;;;;;4993651;28;20417;-80
2021/03/23 05:30:45;;;;;;;6.10;3.10;;;5.00;97.30;;;;;;5003910;28;20173;-82
2021/03/23 05:33:12;;;;;;;6.13;2.77;;;5.00;97.30;;;;;;5013403;28;20435;-83
2021/03/23 05:35:39;;;;;;;7.20;3.10;;;5.00;97.30;;;;;;5016205;28;20181;-83
2021/03/23 05:38:05;;;;;;;8.60;3.20;;;5.00;97.30;;;;;;5016808;28;20424;-82
2021/03/23 05:40:38;;;;;;;6.77;3.67;;;5.10;97.30;;;;;;5017043;28;20492;-82
2021/03/23 05:43:24;;;;;;;10.90;3.70;;;5.10;97.30;;;;;;4997454;28;604662;-82
2021/03/23 05:45:56;;;;;;;11.00;4.60;;;5.10;97.30;;;;;;5004047;28;20567;-83
2021/03/23 05:48:28;;;;;;;11.43;5.23;;;5.10;97.30;;;;;;5017495;28;20392;-83
2021/03/23 05:51:17;;;;;;;11.73;5.20;;;5.10;97.30;;;;;;5017712;28;20480;-83
2021/03/23 05:53:49;;;;;;;17.00;5.03;;;5.10;97.30;;;;;;5008175;28;20421;-82
2021/03/23 05:56:15;;;;;;;9.47;4.70;;;5.10;97.30;;;;;;5024496;28;20515;-83
2021/03/23 05:58:49;;;;;;;9.53;5.60;;;5.10;97.30;;;;;;5014991;28;20460;-83
2021/03/23 06:01:31;;;;;;;10.90;5.03;;;5.20;97.30;;;;;;5003983;28;20479;-83
2021/03/23 06:04:13;;;;;;;14.63;6.00;;;5.20;97.30;;;;;;5011048;28;21035;-83
2021/03/23 06:06:49;;;;;;;11.00;5.47;;;5.30;97.30;;;;;;5023062;28;20771;-82
2021/03/23 06:09:20;;;;;;;9.97;5.00;;;5.30;97.30;;;;;;5028024;28;20960;-83
2021/03/23 06:11:54;;;;;;;10.80;4.80;;;5.40;97.30;;;;;;5018950;28;20607;-83
2021/03/23 06:14:29;;;;;;;8.63;4.50;;;5.40;97.30;;;;;;5018160;28;20411;-83
2021/03/23 06:17:05;;;;;;;7.40;4.33;;;5.50;97.30;;;;;;5000223;28;20425;-83
2021/03/23 06:19:45;;;;;;;8.47;4.50;;;5.60;97.30;;;;;;4997580;28;20421;-83
2021/03/23 06:22:31;;;;;;;12.50;4.40;;;5.60;97.30;;;;;;5009958;28;20943;-83
2021/03/23 06:25:00;;;;;;;10.70;5.13;;;5.70;97.30;;;;;;4996843;28;20464;-83
2021/03/23 06:27:40;;;;;;;11.00;5.00;;;5.70;97.30;;;;;;4997922;28;20428;-83
2021/03/23 06:30:59;;;;;;;9.73;5.20;;;5.70;97.30;;;;;;4995652;28;20763;-83
2021/03/23 06:33:28;;;;;;;16.03;5.10;;;5.60;97.30;;;;;;4920634;29;20956;-84
2021/03/23 06:36:02;;;;;;;13.57;5.77;;;5.60;97.30;;;;;;4936308;29;20484;-83
2021/03/23 06:38:41;;;;;;;11.97;6.00;;;5.50;97.30;;;;;;4959200;28;20523;-84
2021/03/23 06:41:07;;;;;;;18.87;7.03;;;5.50;97.30;;;;;;4997104;28;20490;-82
2021/03/23 06:43:34;;;;;;;10.83;5.30;;;5.40;97.30;;;;;;4996234;28;20512;-82
2021/03/23 06:46:02;;;;;;;13.57;6.23;;;5.40;97.30;;;;;;4997855;28;20204;-84
2021/03/23 06:48:30;;;;;;;14.17;5.80;;;5.40;97.30;;;;;;5036887;28;20417;-83
2021/03/23 06:51:19;;;;;;;13.40;6.10;;;5.40;97.30;;;;;;4986949;28;20800;-85
2021/03/23 06:53:45;;;;;;;9.20;5.43;;;5.40;97.30;;;;;;5001273;28;20961;-83
2021/03/23 06:56:20;;;;;;;15.33;6.30;;;5.30;97.30;;;;;;5006917;28;20427;-84
2021/03/23 06:58:47;;;;;;;16.93;6.67;;;5.30;97.30;;;;;;5004139;28;20420;-84
2021/03/23 07:01:19;;;;;;;12.67;6.73;;;5.30;97.30;;;;;;5003505;28;20476;-82
2021/03/23 07:03:53;;;;;;;18.33;6.30;;;5.30;97.30;;;;;;5005656;28;20475;-83
2021/03/23 07:06:20;;;;;;;14.40;6.77;;;5.30;97.30;;;;;;5000843;28;20419;-83
2021/03/23 07:09:05;;;;;;;11.90;5.83;;;5.20;97.30;;;;;;5004030;28;20460;-82
2021/03/23 07:12:09;;;;;;;11.60;5.60;;;5.20;97.30;;;;;;5013233;28;20482;-83
2021/03/23 07:14:36;;;;;;;7.23;4.50;;;5.10;97.30;;;;;;5004266;28;20432;-83
2021/03/23 07:17:08;;;;;;;11.07;4.40;;;5.00;97.30;;;;;;5024477;28;20482;-84
2021/03/23 07:19:54;;;;;;;8.90;4.23;;;5.00;97.30;;;;;;5004729;28;20463;-85
2021/03/23 07:22:47;;;;;;;6.70;3.90;;;4.90;97.30;;;;;;5031939;28;20719;-83
2021/03/23 07:25:39;;;;;;;6.93;3.50;;;4.90;97.30;;;;;;5020241;28;20515;-82
2021/03/23 07:28:37;;;;;;;6.20;3.57;;;4.90;97.30;;;;;;5006354;28;20526;-83
2021/03/23 07:31:34;;;;;;;5.73;2.73;;;4.90;97.30;;;;;;5005171;28;20412;-83
2021/03/23 07:34:11;;;;;;;6.70;2.90;;;5.00;97.30;;;;;;5004373;28;20425;-82
2021/03/23 07:36:46;;;;;;;4.10;2.83;;;5.00;97.30;;;;;;5003823;28;20417;-82
2021/03/23 07:39:25;;;;;;;4.43;2.87;;;5.10;97.30;;;;;;5004630;28;20417;-84
2021/03/23 07:42:02;;;;;;;4.03;2.83;;;5.10;97.30;;;;;;5007289;28;20467;-83
2021/03/23 07:44:47;;;;;;;4.97;2.83;;;5.10;97.30;;;;;;5005819;28;20462;-83
2021/03/23 07:47:23;;;;;;;5.67;3.07;;;5.20;97.30;;;;;;5002877;28;20444;-83
2021/03/23 07:49:58;;;;;;;5.83;3.60;;;5.20;97.30;;;;;;5001835;28;20417;-82
2021/03/23 07:52:36;;;;;;;6.70;3.13;;;5.20;97.30;;;;;;5004942;28;20440;-83
2021/03/23 07:55:04;;;;;;;4.20;2.70;;;5.30;97.30;;;;;;5007324;28;21162;-83
2021/03/23 07:57:32;;;;;;;6.00;3.33;;;5.30;97.30;;;;;;5000968;28;20428;-82
2021/03/23 08:00:04;;;;;;;4.30;2.97;;;5.40;97.30;;;;;;4996655;28;20432;-83
2021/03/23 08:02:51;;;;;;;5.80;2.50;;;5.50;97.30;;;;;;5024314;28;20828;-82
2021/03/23 08:05:19;;;;;;;4.93;3.30;;;5.50;97.30;;;;;;5015730;28;20438;-83
2021/03/23 08:08:00;;;;;;;5.70;2.67;;;5.60;97.30;;;;;;5005485;28;20427;-83
2021/03/23 08:10:48;;;;;;;4.87;2.73;;;5.60;97.30;;;;;;5012370;28;21806;-84
2021/03/23 08:13:25;;;;;;;7.87;3.63;;;5.70;97.30;;;;;;5015836;28;20557;-82
2021/03/23 08:16:11;;;;;;;6.70;3.07;;;5.80;97.30;;;;;;5001671;28;20503;-83
2021/03/23 08:18:59;;;;;;;5.03;3.33;;;5.90;97.30;;;;;;5004125;28;20415;-81
2021/03/23 08:21:42;;;;;;;7.70;4.03;;;6.00;97.30;;;;;;5003284;28;20433;-82
2021/03/23 08:24:44;;;;;;;8.50;5.40;;;6.10;97.30;;;;;;5003806;28;20722;-84
2021/03/23 08:27:19;;;;;;;8.07;4.73;;;6.20;97.30;;;;;;4999573;28;20412;-83
2021/03/23 08:32:47;;;;;;;9.30;5.23;;;6.20;97.30;;;;;;4311992;22;20514;-73
2021/03/23 08:35:51;;;;;;;11.43;5.47;;;6.30;97.30;;;;;;5045611;28;20756;-73
2021/03/23 08:38:33;;;;;;;9.43;5.67;;;6.30;97.30;;;;;;5011369;28;20506;-73
2021/03/23 08:41:28;;;;;;;6.70;4.83;;;6.40;97.30;;;;;;5050166;28;20472;-73
2021/03/23 08:43:54;;;;;;;10.10;5.33;;;6.30;97.30;;;;;;5032623;28;20997;-74
2021/03/23 08:46:25;;;;;;;10.50;6.03;;;6.30;97.30;;;;;;5029344;28;20418;-78
2021/03/23 08:49:05;;;;;;;8.97;5.43;;;6.30;97.30;;;;;;5059059;28;20453;-73
2021/03/23 08:51:32;;;;;;;9.27;5.90;;;6.20;97.30;;;;;;5046213;28;20524;-74
2021/03/23 08:54:02;;;;;;;20.00;6.40;;;6.20;97.30;;;;;;5052713;28;21003;-73
2021/03/23 08:56:50;;;;;;;9.00;5.13;;;6.20;97.30;;;;;;5046024;28;20859;-73
2021/03/23 08:59:33;;;;;;;12.10;6.17;;;6.20;97.30;;;;;;5026267;28;20415;-74
2021/03/23 09:02:00;;;;;;;9.37;5.60;;;6.30;97.30;;;;;;5064510;28;20436;-74
2021/03/23 09:04:42;;;;;;;11.97;5.87;;;6.40;97.30;;;;;;5052626;28;20491;-74
2021/03/23 09:07:25;;;;;;;8.40;5.00;;;6.50;97.30;;;;;;5012805;28;20924;-74
2021/03/23 09:09:54;;;;;;;12.33;6.50;;;6.50;97.30;;;;;;5013848;28;20510;-74
2021/03/23 09:12:42;;;;;;;11.83;6.03;;;6.60;97.30;;;;;;5030164;28;20438;-73
2021/03/23 09:15:22;;;;;;;10.37;5.30;;;6.60;97.30;;;;;;5070848;28;20409;-74
2021/03/23 09:18:00;;;;;;;8.77;5.50;;;6.60;97.30;;;;;;5073796;28;20802;-75
2021/03/23 09:20:35;;;;;;;9.30;5.20;;;6.60;97.30;;;;;;5056622;28;20416;-75
2021/03/23 09:25:47;;;;;;;8.50;4.43;;;6.70;97.30;;;;;;5074262;28;20497;-74
2021/03/23 09:28:34;;;;;;;9.87;4.50;;;6.80;97.30;;;;;;5056597;28;20417;-76
2021/03/23 09:31:04;;;;;;;6.23;3.83;;;6.90;97.30;;;;;;5054130;28;20494;-75
2021/03/23 09:33:35;;;;;;;4.87;3.50;;;7.00;97.30;;;;;;5055002;28;21035;-74
2021/03/23 09:38:45;;;;;;;7.73;3.73;;;7.10;97.30;;;;;;5074078;28;20438;-74
2021/03/23 09:41:20;;;;;;;5.93;3.00;;;7.10;97.30;;;;;;5054021;28;20818;-74
2021/03/23 09:43:49;;;;;;;5.23;3.23;;;7.00;97.30;;;;;;5072285;28;20463;-74
2021/03/23 09:46:34;;;;;;;3.70;3.20;;;7.10;97.30;;;;;;5052254;28;20513;-77
2021/03/23 09:49:17;;;;;;;6.20;3.33;;;7.10;97.30;;;;;;5034740;28;20657;-75
2021/03/23 09:51:48;;;;;;;5.90;3.10;;;7.00;97.30;;;;;;5034197;28;20438;-75
2021/03/23 09:54:25;;;;;;;4.90;3.47;;;7.10;97.30;;;;;;5052170;28;20450;-76
2021/03/23 09:56:52;;;;;;;4.47;3.40;;;7.00;97.30;;;;;;5036070;28;20981;-76
2021/03/23 09:59:31;;;;;;;5.83;3.37;;;6.90;97.30;;;;;;5036009;28;20449;-75
2021/03/23 10:02:19;;;;;;;5.87;3.30;;;6.90;97.30;;;;;;5035812;28;20500;-76
2021/03/23 10:04:46;;;;;;;7.20;3.70;;;6.80;97.30;;;;;;5023071;28;20457;-75
2021/03/23 10:07:39;;;;;;;5.03;3.77;;;6.80;97.30;;;;;;5053377;28;20783;-73
2021/03/23 10:10:19;;;;;;;7.37;4.00;;;6.80;97.30;;;;;;5036054;28;20418;-74
2021/03/23 10:12:45;;;;;;;4.90;3.70;;;6.80;97.30;;;;;;5035812;28;20422;-76
2021/03/23 10:15:34;;;;;;;7.17;4.40;;;6.90;97.30;;;;;;5035850;28;20414;-74
2021/03/23 10:18:18;;;;;;;10.53;5.13;;;6.90;97.30;;;;;;5036213;28;20540;-74
2021/03/23 10:21:08;;;;;;;10.63;4.70;;;6.90;97.30;;;;;;5034030;28;20533;-75
2021/03/23 10:23:41;;;;;;;6.03;4.50;;;6.90;97.30;;;;;;5034165;28;20461;-75
2021/03/23 10:26:07;;;;;;;7.30;4.60;;;6.80;97.30;;;;;;5034348;28;20447;-75
2021/03/23 10:28:47;;;;;;;8.10;5.13;;;6.90;97.30;;;;;;5034520;28;20419;-75
2021/03/23 10:31:15;;;;;;;6.63;4.10;;;7.10;97.30;;;;;;5034010;28;20465;-76
2021/03/23 10:33:42;;;;;;;8.63;5.90;;;7.10;97.30;;;;;;5034646;28;20778;-76
2021/03/23 10:36:11;;;;;;;9.57;5.20;;;7.10;97.30;;;;;;5053460;28;21002;-75
2021/03/23 10:38:47;;;;;;;9.90;5.40;;;7.10;97.30;;;;;;5038541;28;20423;-75
2021/03/23 10:41:19;;;;;;;14.10;5.27;;;7.10;97.30;;;;;;5040691;28;20442;-71
2021/03/23 10:43:51;;;;;;;10.30;5.40;;;7.00;97.30;;;;;;5035217;28;20457;-71
2021/03/23 10:46:38;;;;;;;9.73;5.40;;;7.00;97.30;;;;;;5033298;28;20525;-75
2021/03/23 10:49:28;;;;;;;8.47;5.03;;;7.00;97.30;;;;;;5019970;28;20418;-76
2021/03/23 10:52:03;;;;;;;11.13;6.03;;;6.80;97.30;;;;;;5035219;28;20434;-76
2021/03/23 10:54:35;;;;;;;10.83;6.03;;;6.70;97.30;;;;;;5035244;28;20467;-73
2021/03/23 10:57:27;;;;;;;11.53;5.43;;;6.70;97.30;;;;;;5036258;28;20501;-73
2021/03/23 10:59:54;;;;;;;11.90;6.40;;;6.70;97.30;;;;;;5034748;28;20441;-78
2021/03/23 11:02:32;;;;;;;9.30;6.30;;;6.70;97.30;;;;;;5039703;28;20449;-74
2021/03/23 11:05:09;;;;;;;10.90;5.97;;;6.80;97.30;;;;;;5034957;28;20465;-73
2021/03/23 11:07:39;;;;;;;12.53;5.97;;;6.80;97.30;;;;;;5035123;28;20450;-73
2021/03/23 11:10:09;;;;;;;15.00;6.03;;;6.90;97.30;;;;;;5034639;28;20464;-74
2021/03/23 11:12:35;;;;;;;10.83;6.13;;;7.00;97.30;;;;;;5053825;28;20494;-76
2021/03/23 11:15:01;;;;;;;9.63;6.07;;;7.20;97.30;;;;;;5053094;28;20453;-76
2021/03/23 11:17:28;;;;;;;10.20;5.87;;;7.20;97.30;;;;;;5035424;28;20504;-76
2021/03/23 11:20:00;;;;;;;10.33;6.30;;;7.20;97.30;;;;;;5034970;28;20441;-75
2021/03/23 11:22:34;;;;;;;12.97;7.20;;;7.20;97.30;;;;;;5033856;28;20445;-75
2021/03/23 11:25:02;;;;;;;9.30;5.87;;;7.20;97.30;;;;;;5064267;28;20507;-75
2021/03/23 11:27:28;;;;;;;11.30;6.00;;;7.20;97.30;;;;;;5073387;28;20409;-73
2021/03/23 11:29:58;;;;;;;10.73;5.83;;;7.20;97.30;;;;;;5042446;28;20516;-71
2021/03/23 11:32:25;;;;;;;9.03;5.87;;;7.10;97.30;;;;;;5029006;28;20458;-75
2021/03/23 11:34:51;;;;;;;9.93;5.87;;;7.00;97.30;;;;;;5033948;28;20431;-77
2021/03/23 11:37:18;;;;;;;10.57;5.87;;;7.00;97.30;;;;;;5046588;28;20422;-75
2021/03/23 11:39:44;;;;;;;12.43;6.63;;;6.90;97.30;;;;;;5044341;28;20414;-75
2021/03/23 11:42:35;;;;;;;15.40;6.67;;;6.90;97.30;;;;;;5051035;28;20426;-74
2021/03/23 11:45:06;;;;;;;11.60;7.07;;;6.90;97.30;;;;;;5033278;28;20560;-75
2021/03/23 11:47:42;;;;;;;11.93;6.43;;;6.90;97.30;;;;;;5034519;28;20505;-76
2021/03/23 11:50:29;;;;;;;12.87;5.23;;;6.90;97.30;;;;;;5034594;28;20436;-75
2021/03/23 11:52:56;;;;;;;10.60;6.03;;;7.00;97.30;;;;;;5031928;28;20418;-75
2021/03/23 11:55:44;;;;;;;10.17;5.87;;;7.10;97.30;;;;;;5032219;28;20422;-77
2021/03/23 11:58:10;;;;;;;12.90;6.00;;;7.10;97.30;;;;;;5050826;28;20771;-75
2021/03/23 12:00:36;;;;;;;9.30;5.40;;;7.00;97.30;;;;;;5048033;28;20437;-76
2021/03/23 12:03:06;;;;;;;14.60;6.60;;;7.00;97.30;;;;;;5053023;28;20421;-75
2021/03/23 12:05:34;;;;;;;9.60;5.60;;;7.00;97.30;;;;;;5071031;28;20508;-75
2021/03/23 12:08:16;;;;;;;10.60;5.70;;;7.00;97.30;;;;;;5052737;28;20430;-76
2021/03/23 12:11:08;;;;;;;11.47;5.60;;;7.00;97.30;;;;;;5052689;28;20456;-75
2021/03/23 12:13:56;;;;;;;10.83;6.30;;;7.00;97.30;;;;;;5053373;28;20421;-77
2021/03/23 12:16:24;;;;;;;11.40;5.50;;;7.10;97.30;;;;;;5071061;28;20429;-76
2021/03/23 12:18:57;;;;;;;9.20;5.50;;;7.20;97.30;;;;;;5071981;28;20413;-75
2021/03/23 12:21:24;;;;;;;10.57;5.80;;;7.20;97.30;;;;;;5053622;28;20940;-76
2021/03/23 12:23:50;;;;;;;10.13;5.37;;;7.30;97.30;;;;;;5053000;28;20456;-76
2021/03/23 12:26:16;;;;;;;8.93;5.37;;;7.20;97.30;;;;;;5054911;28;20497;-77
2021/03/23 12:28:44;;;;;;;12.17;5.77;;;7.20;97.30;;;;;;5072330;28;20421;-77
2021/03/23 12:31:11;;;;;;;8.13;4.97;;;7.20;97.30;;;;;;5052291;28;20485;-76
2021/03/23 12:33:37;;;;;;;10.10;6.23;;;7.20;97.30;;;;;;5053794;28;20433;-82
2021/03/23 12:36:04;;;;;;;10.83;6.40;;;7.20;97.30;;;;;;5057784;28;20413;-75
2021/03/23 12:38:30;;;;;;;8.33;5.80;;;7.20;97.30;;;;;;5053351;28;20926;-77
2021/03/23 12:40:56;;;;;;;9.10;5.47;;;7.20;97.30;;;;;;5055674;28;20457;-76
2021/03/23 12:43:27;;;;;;;8.60;4.73;;;7.20;97.30;;;;;;5034098;28;20458;-77
2021/03/23 12:45:55;;;;;;;8.23;5.00;;;7.30;97.30;;;;;;5032457;28;20280;-76
2021/03/23 12:48:22;;;;;;;8.90;5.60;;;7.40;97.30;;;;;;5031886;28;20909;-75
2021/03/23 12:50:49;;;;;;;6.50;4.97;;;7.50;97.30;;;;;;5046135;28;20445;-76
2021/03/23 12:53:22;;;;;;;11.03;5.00;;;7.50;97.30;;;;;;5053052;28;20473;-76
2021/03/23 12:55:56;;;;;;;11.57;5.40;;;7.40;97.30;;;;;;5053319;28;20424;-74
2021/03/23 12:58:30;;;;;;;9.50;5.80;;;7.50;97.30;;;;;;5068964;28;20405;-74
2021/03/23 13:00:56;;;;;;;10.10;5.50;;;7.60;97.30;;;;;;5023781;28;20807;-80
2021/03/23 13:03:22;;;;;;;8.70;4.87;;;7.60;97.30;;;;;;5017841;28;20810;-73
2021/03/23 13:05:52;;;;;;;8.63;5.43;;;7.50;97.30;;;;;;5020906;28;20428;-73
2021/03/23 13:08:31;;;;;;;11.60;5.80;;;7.50;97.30;;;;;;5045156;28;20183;-72
2021/03/23 13:11:06;;;;;;;26.50;6.13;;;7.50;97.30;;;;;;5032105;28;20799;-73
2021/03/23 13:13:36;;;;;;;10.43;6.00;;;7.60;97.30;;;;;;5051707;28;20504;-73
2021/03/23 13:16:03;;;;;;;8.50;5.80;;;7.60;97.30;;;;;;5075298;28;20417;-74
2021/03/23 13:18:32;;;;;;;9.77;5.57;;;7.50;97.30;;;;;;5055778;28;20815;-73
2021/03/23 13:21:04;;;;;;;10.63;6.00;;;7.50;97.30;;;;;;5037764;28;20443;-74
2021/03/23 13:23:52;;;;;;;11.20;5.67;;;7.60;97.30;;;;;;5041199;28;20480;-73
2021/03/23 13:26:24;;;;;;;11.27;5.20;;;7.60;97.30;;;;;;5037629;28;20842;-73
2021/03/23 13:28:58;;;;;;;12.63;6.03;;;7.60;97.30;;;;;;5022543;28;20511;-74
2021/03/23 13:31:30;;;;;;;11.97;5.90;;;7.70;97.30;;;;;;5024645;28;20535;-74
2021/03/23 13:33:56;;;;;;;8.90;5.17;;;7.70;97.30;;;;;;5023258;28;20428;-73
2021/03/23 13:36:46;;;;;;;12.13;6.33;;;7.80;97.30;;;;;;5024469;28;20509;-75
2021/03/23 13:39:19;;;;;;;10.93;6.17;;;7.70;97.30;;;;;;5027083;28;20406;-74
2021/03/23 13:41:44;;;;;;;11.20;6.00;;;7.50;97.30;;;;;;5021260;28;20837;-74
2021/03/23 13:44:38;;;;;;;11.47;6.00;;;7.50;97.30;;;;;;5022223;28;20454;-74
2021/03/23 13:47:04;;;;;;;13.10;6.63;;;7.40;97.30;;;;;;5021387;28;20238;-73
2021/03/23 13:49:30;;;;;;;9.80;6.20;;;7.40;97.30;;;;;;5028640;28;20425;-75
2021/03/23 13:51:56;;;;;;;12.13;6.80;;;7.40;97.30;;;;;;5032043;28;20839;-74